sensor_id;sensor_type;location;lat;lon;timestamp;P1;durP1;ratioP1;P2;durP2;ratioP2
68300;SDS011;55146;47.468;18.806;2023-05-10T00:00:56;5.90;;;3.43;;
68300;SDS011;55146;47.468;18.806;2023-05-10T00:03:22;5.82;;;3.53;;
68300;SDS011;55146;47.468;18.806;2023-05-10T00:05:47;6.83;;;3.70;;
68300;SDS011;55146;47.468;18.806;2023-05-10T00:08:13;7.20;;;4.10;;
68300;SDS011;55146;47.468;18.806;2023-05-10T00:10:38;5.90;;;3.77;;
68300;SDS011;55146;47.468;18.806;2023-05-10T00:13:03;5.90;;;3.63;;
68300;SDS011;55146;47.468;18.806;2023-05-10T00:15:29;6.20;;;4.03;;
68300;SDS011;55146;47.468;18.806;2023-05-10T00:17:55;5.93;;;3.85;;
68300;SDS011;55146;47.468;18.806;2023-05-10T00:20:21;8.80;;;3.70;;
68300;SDS011;55146;47.468;18.806;2023-05-10T00:22:46;7.00;;;4.30;;
68300;SDS011;55146;47.468;18.806;2023-05-10T00:25:12;6.27;;;3.33;;
68300;SDS011;55146;47.468;18.806;2023-05-10T00:27:37;6.33;;;3.43;;
68300;SDS011;55146;47.468;18.806;2023-05-10T00:30:03;6.33;;;3.87;;
68300;SDS011;55146;47.468;18.806;2023-05-10T00:32:28;6.13;;;4.23;;
68300;SDS011;55146;47.468;18.806;2023-05-10T00:34:54;6.73;;;4.50;;
68300;SDS011;55146;47.468;18.806;2023-05-10T00:37:19;6.63;;;3.37;;
68300;SDS011;55146;47.468;18.806;2023-05-10T00:39:45;6.53;;;4.20;;
68300;SDS011;55146;47.468;18.806;2023-05-10T00:42:10;8.73;;;4.90;;
68300;SDS011;55146;47.468;18.806;2023-05-10T00:44:35;7.07;;;4.40;;
68300;SDS011;55146;47.468;18.806;2023-05-10T00:47:01;7.78;;;4.60;;
68300;SDS011;55146;47.468;18.806;2023-05-10T00:49:26;6.77;;;4.73;;
68300;SDS011;55146;47.468;18.806;2023-05-10T00:51:51;7.27;;;4.33;;
68300;SDS011;55146;47.468;18.806;2023-05-10T00:54:17;6.37;;;4.20;;
68300;SDS011;55146;47.468;18.806;2023-05-10T00:56:43;6.85;;;4.60;;
68300;SDS011;55146;47.468;18.806;2023-05-10T00:59:13;6.53;;;4.32;;
68300;SDS011;55146;47.468;18.806;2023-05-10T01:01:43;6.10;;;4.20;;
68300;SDS011;55146;47.468;18.806;2023-05-10T01:04:10;7.87;;;4.50;;
68300;SDS011;55146;47.468;18.806;2023-05-10T01:06:36;6.93;;;4.32;;
68300;SDS011;55146;47.468;18.806;2023-05-10T01:09:02;7.60;;;4.87;;
68300;SDS011;55146;47.468;18.806;2023-05-10T01:11:27;9.10;;;4.57;;
68300;SDS011;55146;47.468;18.806;2023-05-10T01:13:55;7.53;;;4.22;;
68300;SDS011;55146;47.468;18.806;2023-05-10T01:16:23;8.10;;;4.27;;
68300;SDS011;55146;47.468;18.806;2023-05-10T01:18:50;6.32;;;4.15;;
68300;SDS011;55146;47.468;18.806;2023-05-10T01:24:09;7.43;;;4.93;;
68300;SDS011;55146;47.468;18.806;2023-05-10T01:30:04;9.63;;;4.90;;
68300;SDS011;55146;47.468;18.806;2023-05-10T01:43:23;11.20;;;5.47;;
68300;SDS011;55146;47.468;18.806;2023-05-10T01:46:02;10.30;;;4.93;;
68300;SDS011;55146;47.468;18.806;2023-05-10T01:48:37;9.60;;;5.82;;
68300;SDS011;55146;47.468;18.806;2023-05-10T01:51:11;8.32;;;5.45;;
68300;SDS011;55146;47.468;18.806;2023-05-10T01:53:37;9.05;;;5.35;;
68300;SDS011;55146;47.468;18.806;2023-05-10T01:56:05;7.20;;;4.70;;
68300;SDS011;55146;47.468;18.806;2023-05-10T01:58:33;9.07;;;5.45;;
68300;SDS011;55146;47.468;18.806;2023-05-10T02:01:01;8.20;;;5.55;;
68300;SDS011;55146;47.468;18.806;2023-05-10T02:03:29;9.82;;;5.40;;
68300;SDS011;55146;47.468;18.806;2023-05-10T02:05:57;7.90;;;4.70;;
68300;SDS011;55146;47.468;18.806;2023-05-10T02:08:22;8.87;;;5.20;;
68300;SDS011;55146;47.468;18.806;2023-05-10T02:10:50;11.82;;;6.93;;
68300;SDS011;55146;47.468;18.806;2023-05-10T02:13:19;10.75;;;5.95;;
68300;SDS011;55146;47.468;18.806;2023-05-10T02:15:47;8.30;;;5.53;;
68300;SDS011;55146;47.468;18.806;2023-05-10T02:18:13;8.25;;;5.30;;
68300;SDS011;55146;47.468;18.806;2023-05-10T02:20:40;9.75;;;5.80;;
68300;SDS011;55146;47.468;18.806;2023-05-10T02:23:06;10.80;;;4.87;;
68300;SDS011;55146;47.468;18.806;2023-05-10T02:25:34;8.80;;;5.40;;
68300;SDS011;55146;47.468;18.806;2023-05-10T02:28:02;9.30;;;5.13;;
68300;SDS011;55146;47.468;18.806;2023-05-10T02:30:31;8.20;;;5.50;;
68300;SDS011;55146;47.468;18.806;2023-05-10T02:32:57;9.45;;;6.05;;
68300;SDS011;55146;47.468;18.806;2023-05-10T02:35:24;10.32;;;6.10;;
68300;SDS011;55146;47.468;18.806;2023-05-10T02:37:51;9.73;;;5.93;;
68300;SDS011;55146;47.468;18.806;2023-05-10T02:40:17;8.67;;;5.33;;
68300;SDS011;55146;47.468;18.806;2023-05-10T02:42:46;9.05;;;5.53;;
68300;SDS011;55146;47.468;18.806;2023-05-10T02:45:15;11.15;;;7.82;;
68300;SDS011;55146;47.468;18.806;2023-05-10T02:47:47;11.55;;;5.72;;
68300;SDS011;55146;47.468;18.806;2023-05-10T02:50:13;8.93;;;5.68;;
68300;SDS011;55146;47.468;18.806;2023-05-10T02:52:39;8.23;;;5.60;;
68300;SDS011;55146;47.468;18.806;2023-05-10T02:55:08;9.43;;;5.15;;
68300;SDS011;55146;47.468;18.806;2023-05-10T02:57:38;7.78;;;5.00;;
68300;SDS011;55146;47.468;18.806;2023-05-10T03:00:07;9.30;;;4.70;;
68300;SDS011;55146;47.468;18.806;2023-05-10T03:02:33;8.80;;;5.40;;
68300;SDS011;55146;47.468;18.806;2023-05-10T03:04:58;9.07;;;5.23;;
68300;SDS011;55146;47.468;18.806;2023-05-10T03:07:24;9.67;;;5.27;;
68300;SDS011;55146;47.468;18.806;2023-05-10T03:09:49;7.97;;;4.63;;
68300;SDS011;55146;47.468;18.806;2023-05-10T03:12:22;9.53;;;4.63;;
68300;SDS011;55146;47.468;18.806;2023-05-10T03:17:55;6.85;;;4.07;;
68300;SDS011;55146;47.468;18.806;2023-05-10T03:23:29;8.77;;;4.63;;
68300;SDS011;55146;47.468;18.806;2023-05-10T03:26:00;8.68;;;4.57;;
68300;SDS011;55146;47.468;18.806;2023-05-10T03:28:26;9.20;;;4.80;;
68300;SDS011;55146;47.468;18.806;2023-05-10T03:30:53;7.72;;;5.03;;
68300;SDS011;55146;47.468;18.806;2023-05-10T03:33:19;8.57;;;5.10;;
68300;SDS011;55146;47.468;18.806;2023-05-10T03:35:45;7.83;;;4.60;;
68300;SDS011;55146;47.468;18.806;2023-05-10T03:38:11;6.68;;;4.55;;
68300;SDS011;55146;47.468;18.806;2023-05-10T03:40:39;7.30;;;4.67;;
68300;SDS011;55146;47.468;18.806;2023-05-10T03:43:05;7.82;;;5.05;;
68300;SDS011;55146;47.468;18.806;2023-05-10T03:45:30;8.53;;;5.20;;
68300;SDS011;55146;47.468;18.806;2023-05-10T03:47:56;7.37;;;5.17;;
68300;SDS011;55146;47.468;18.806;2023-05-10T03:50:22;7.87;;;4.75;;
68300;SDS011;55146;47.468;18.806;2023-05-10T03:52:48;7.63;;;5.53;;
68300;SDS011;55146;47.468;18.806;2023-05-10T03:55:13;9.17;;;4.80;;
68300;SDS011;55146;47.468;18.806;2023-05-10T03:57:38;8.30;;;6.00;;
68300;SDS011;55146;47.468;18.806;2023-05-10T04:00:04;8.80;;;4.60;;
68300;SDS011;55146;47.468;18.806;2023-05-10T04:02:30;9.00;;;4.87;;
68300;SDS011;55146;47.468;18.806;2023-05-10T04:04:55;7.22;;;5.22;;
68300;SDS011;55146;47.468;18.806;2023-05-10T04:07:21;9.57;;;5.33;;
68300;SDS011;55146;47.468;18.806;2023-05-10T04:09:47;8.70;;;4.80;;
68300;SDS011;55146;47.468;18.806;2023-05-10T04:12:12;8.43;;;5.30;;
68300;SDS011;55146;47.468;18.806;2023-05-10T04:14:37;9.80;;;5.00;;
68300;SDS011;55146;47.468;18.806;2023-05-10T04:17:03;9.90;;;4.57;;
68300;SDS011;55146;47.468;18.806;2023-05-10T04:19:29;8.77;;;4.83;;
68300;SDS011;55146;47.468;18.806;2023-05-10T04:21:57;7.45;;;5.82;;
68300;SDS011;55146;47.468;18.806;2023-05-10T04:24:23;7.25;;;5.07;;
68300;SDS011;55146;47.468;18.806;2023-05-10T04:26:48;9.53;;;5.43;;
68300;SDS011;55146;47.468;18.806;2023-05-10T04:29:13;8.43;;;5.17;;
68300;SDS011;55146;47.468;18.806;2023-05-10T04:31:39;9.37;;;5.60;;
68300;SDS011;55146;47.468;18.806;2023-05-10T04:34:04;8.37;;;5.17;;
68300;SDS011;55146;47.468;18.806;2023-05-10T04:36:30;9.68;;;5.30;;
68300;SDS011;55146;47.468;18.806;2023-05-10T04:38:57;9.98;;;5.65;;
68300;SDS011;55146;47.468;18.806;2023-05-10T04:41:22;7.23;;;4.90;;
68300;SDS011;55146;47.468;18.806;2023-05-10T04:43:48;8.03;;;5.70;;
68300;SDS011;55146;47.468;18.806;2023-05-10T04:46:14;7.32;;;5.00;;
68300;SDS011;55146;47.468;18.806;2023-05-10T04:48:39;8.73;;;5.50;;
68300;SDS011;55146;47.468;18.806;2023-05-10T04:51:05;7.30;;;5.03;;
68300;SDS011;55146;47.468;18.806;2023-05-10T04:53:31;10.88;;;5.15;;
68300;SDS011;55146;47.468;18.806;2023-05-10T04:55:57;9.48;;;5.10;;
68300;SDS011;55146;47.468;18.806;2023-05-10T04:58:22;8.40;;;5.77;;
68300;SDS011;55146;47.468;18.806;2023-05-10T05:00:48;9.43;;;5.70;;
68300;SDS011;55146;47.468;18.806;2023-05-10T05:03:13;11.37;;;6.20;;
68300;SDS011;55146;47.468;18.806;2023-05-10T05:05:38;9.07;;;5.67;;
68300;SDS011;55146;47.468;18.806;2023-05-10T05:08:04;9.85;;;5.57;;
68300;SDS011;55146;47.468;18.806;2023-05-10T05:10:29;6.73;;;5.20;;
68300;SDS011;55146;47.468;18.806;2023-05-10T05:12:55;8.80;;;5.93;;
68300;SDS011;55146;47.468;18.806;2023-05-10T05:15:20;9.17;;;6.20;;
68300;SDS011;55146;47.468;18.806;2023-05-10T05:17:45;10.87;;;5.53;;
68300;SDS011;55146;47.468;18.806;2023-05-10T05:20:11;9.10;;;5.70;;
68300;SDS011;55146;47.468;18.806;2023-05-10T05:22:37;12.25;;;6.78;;
68300;SDS011;55146;47.468;18.806;2023-05-10T05:25:03;12.43;;;5.87;;
68300;SDS011;55146;47.468;18.806;2023-05-10T05:27:29;10.43;;;5.20;;
68300;SDS011;55146;47.468;18.806;2023-05-10T05:29:55;11.67;;;4.67;;
68300;SDS011;55146;47.468;18.806;2023-05-10T05:32:21;8.57;;;5.62;;
68300;SDS011;55146;47.468;18.806;2023-05-10T05:34:47;11.85;;;5.43;;
68300;SDS011;55146;47.468;18.806;2023-05-10T05:37:17;9.88;;;6.05;;
68300;SDS011;55146;47.468;18.806;2023-05-10T05:39:44;9.33;;;5.57;;
68300;SDS011;55146;47.468;18.806;2023-05-10T05:42:10;11.07;;;6.60;;
68300;SDS011;55146;47.468;18.806;2023-05-10T05:44:36;12.30;;;6.60;;
68300;SDS011;55146;47.468;18.806;2023-05-10T05:47:02;12.25;;;6.62;;
68300;SDS011;55146;47.468;18.806;2023-05-10T05:49:28;13.07;;;6.13;;
68300;SDS011;55146;47.468;18.806;2023-05-10T05:51:53;9.97;;;5.83;;
68300;SDS011;55146;47.468;18.806;2023-05-10T05:54:19;9.30;;;5.65;;
68300;SDS011;55146;47.468;18.806;2023-05-10T05:56:45;9.20;;;6.20;;
68300;SDS011;55146;47.468;18.806;2023-05-10T05:59:10;8.27;;;5.83;;
68300;SDS011;55146;47.468;18.806;2023-05-10T06:01:36;9.30;;;6.18;;
68300;SDS011;55146;47.468;18.806;2023-05-10T06:04:02;9.20;;;6.33;;
68300;SDS011;55146;47.468;18.806;2023-05-10T06:06:27;10.00;;;6.35;;
68300;SDS011;55146;47.468;18.806;2023-05-10T06:08:53;7.60;;;5.93;;
68300;SDS011;55146;47.468;18.806;2023-05-10T06:11:18;8.63;;;5.93;;
68300;SDS011;55146;47.468;18.806;2023-05-10T06:13:45;7.82;;;5.07;;
68300;SDS011;55146;47.468;18.806;2023-05-10T06:16:11;7.85;;;4.97;;
68300;SDS011;55146;47.468;18.806;2023-05-10T06:18:36;8.03;;;5.53;;
68300;SDS011;55146;47.468;18.806;2023-05-10T06:21:01;7.77;;;4.70;;
68300;SDS011;55146;47.468;18.806;2023-05-10T06:23:27;9.60;;;5.57;;
68300;SDS011;55146;47.468;18.806;2023-05-10T06:25:52;10.07;;;5.70;;
68300;SDS011;55146;47.468;18.806;2023-05-10T06:28:18;7.20;;;4.60;;
68300;SDS011;55146;47.468;18.806;2023-05-10T06:30:43;8.13;;;4.63;;
68300;SDS011;55146;47.468;18.806;2023-05-10T06:33:09;7.15;;;4.57;;
68300;SDS011;55146;47.468;18.806;2023-05-10T06:35:34;8.17;;;4.37;;
68300;SDS011;55146;47.468;18.806;2023-05-10T06:38:00;9.23;;;4.80;;
68300;SDS011;55146;47.468;18.806;2023-05-10T06:40:25;8.57;;;4.97;;
68300;SDS011;55146;47.468;18.806;2023-05-10T06:42:51;8.47;;;4.70;;
68300;SDS011;55146;47.468;18.806;2023-05-10T06:45:16;8.80;;;4.97;;
68300;SDS011;55146;47.468;18.806;2023-05-10T06:47:42;9.07;;;4.87;;
68300;SDS011;55146;47.468;18.806;2023-05-10T06:50:07;9.67;;;4.13;;
68300;SDS011;55146;47.468;18.806;2023-05-10T06:52:33;5.93;;;4.03;;
68300;SDS011;55146;47.468;18.806;2023-05-10T06:54:59;5.90;;;3.80;;
68300;SDS011;55146;47.468;18.806;2023-05-10T06:57:25;7.43;;;3.97;;
68300;SDS011;55146;47.468;18.806;2023-05-10T06:59:50;7.60;;;3.73;;
68300;SDS011;55146;47.468;18.806;2023-05-10T07:02:17;7.40;;;4.32;;
68300;SDS011;55146;47.468;18.806;2023-05-10T07:04:42;7.27;;;4.47;;
68300;SDS011;55146;47.468;18.806;2023-05-10T07:07:07;8.00;;;3.60;;
68300;SDS011;55146;47.468;18.806;2023-05-10T07:09:33;8.57;;;4.30;;
68300;SDS011;55146;47.468;18.806;2023-05-10T07:11:59;8.25;;;3.70;;
68300;SDS011;55146;47.468;18.806;2023-05-10T07:14:24;7.73;;;4.70;;
68300;SDS011;55146;47.468;18.806;2023-05-10T07:16:50;9.63;;;3.73;;
68300;SDS011;55146;47.468;18.806;2023-05-10T07:19:15;7.53;;;4.50;;
68300;SDS011;55146;47.468;18.806;2023-05-10T07:21:40;7.00;;;4.33;;
68300;SDS011;55146;47.468;18.806;2023-05-10T07:24:08;8.05;;;4.75;;
68300;SDS011;55146;47.468;18.806;2023-05-10T07:26:33;6.90;;;3.73;;
68300;SDS011;55146;47.468;18.806;2023-05-10T07:28:58;6.33;;;4.47;;
68300;SDS011;55146;47.468;18.806;2023-05-10T07:31:24;9.13;;;4.77;;
68300;SDS011;55146;47.468;18.806;2023-05-10T07:33:49;7.90;;;5.10;;
68300;SDS011;55146;47.468;18.806;2023-05-10T07:36:15;7.00;;;4.97;;
68300;SDS011;55146;47.468;18.806;2023-05-10T07:38:40;6.97;;;4.70;;
68300;SDS011;55146;47.468;18.806;2023-05-10T07:41:05;7.57;;;4.47;;
68300;SDS011;55146;47.468;18.806;2023-05-10T07:43:31;7.17;;;4.57;;
68300;SDS011;55146;47.468;18.806;2023-05-10T07:45:56;9.17;;;5.27;;
68300;SDS011;55146;47.468;18.806;2023-05-10T07:48:22;7.90;;;5.68;;
68300;SDS011;55146;47.468;18.806;2023-05-10T07:50:48;6.90;;;4.37;;
68300;SDS011;55146;47.468;18.806;2023-05-10T07:53:13;6.97;;;4.77;;
68300;SDS011;55146;47.468;18.806;2023-05-10T07:55:38;7.40;;;4.57;;
68300;SDS011;55146;47.468;18.806;2023-05-10T07:58:04;7.82;;;5.03;;
68300;SDS011;55146;47.468;18.806;2023-05-10T08:00:29;10.20;;;4.40;;
68300;SDS011;55146;47.468;18.806;2023-05-10T08:02:55;7.63;;;4.30;;
68300;SDS011;55146;47.468;18.806;2023-05-10T08:05:20;8.07;;;5.20;;
68300;SDS011;55146;47.468;18.806;2023-05-10T08:07:45;6.17;;;3.37;;
68300;SDS011;55146;47.468;18.806;2023-05-10T08:10:11;6.07;;;4.10;;
68300;SDS011;55146;47.468;18.806;2023-05-10T08:12:36;6.40;;;4.00;;
68300;SDS011;55146;47.468;18.806;2023-05-10T08:15:03;7.12;;;4.62;;
68300;SDS011;55146;47.468;18.806;2023-05-10T08:17:28;6.30;;;4.13;;
68300;SDS011;55146;47.468;18.806;2023-05-10T08:19:54;11.20;;;4.43;;
68300;SDS011;55146;47.468;18.806;2023-05-10T08:22:19;5.80;;;3.80;;
68300;SDS011;55146;47.468;18.806;2023-05-10T08:24:44;8.85;;;4.25;;
68300;SDS011;55146;47.468;18.806;2023-05-10T08:27:10;6.17;;;3.80;;
68300;SDS011;55146;47.468;18.806;2023-05-10T08:29:36;8.50;;;4.20;;
68300;SDS011;55146;47.468;18.806;2023-05-10T08:32:02;8.85;;;5.03;;
68300;SDS011;55146;47.468;18.806;2023-05-10T08:34:28;5.87;;;3.93;;
68300;SDS011;55146;47.468;18.806;2023-05-10T08:36:53;5.90;;;3.90;;
68300;SDS011;55146;47.468;18.806;2023-05-10T08:39:18;5.30;;;3.67;;
68300;SDS011;55146;47.468;18.806;2023-05-10T08:41:44;7.63;;;3.60;;
68300;SDS011;55146;47.468;18.806;2023-05-10T08:44:11;6.47;;;4.20;;
68300;SDS011;55146;47.468;18.806;2023-05-10T08:46:37;7.20;;;4.27;;
68300;SDS011;55146;47.468;18.806;2023-05-10T08:49:08;7.82;;;4.80;;
68300;SDS011;55146;47.468;18.806;2023-05-10T08:51:40;10.63;;;4.97;;
68300;SDS011;55146;47.468;18.806;2023-05-10T08:54:08;7.57;;;4.65;;
68300;SDS011;55146;47.468;18.806;2023-05-10T08:56:34;7.77;;;4.07;;
68300;SDS011;55146;47.468;18.806;2023-05-10T08:59:01;5.72;;;3.60;;
68300;SDS011;55146;47.468;18.806;2023-05-10T09:01:26;9.30;;;4.22;;
68300;SDS011;55146;47.468;18.806;2023-05-10T09:03:52;5.63;;;4.00;;
68300;SDS011;55146;47.468;18.806;2023-05-10T09:06:18;5.75;;;3.87;;
68300;SDS011;55146;47.468;18.806;2023-05-10T09:08:43;6.83;;;4.07;;
68300;SDS011;55146;47.468;18.806;2023-05-10T09:11:11;5.82;;;4.28;;
68300;SDS011;55146;47.468;18.806;2023-05-10T09:13:37;8.70;;;3.87;;
68300;SDS011;55146;47.468;18.806;2023-05-10T09:16:03;6.67;;;3.60;;
68300;SDS011;55146;47.468;18.806;2023-05-10T09:18:29;5.78;;;4.00;;
68300;SDS011;55146;47.468;18.806;2023-05-10T09:20:55;4.63;;;2.97;;
68300;SDS011;55146;47.468;18.806;2023-05-10T09:23:20;7.30;;;3.60;;
68300;SDS011;55146;47.468;18.806;2023-05-10T09:25:45;5.22;;;3.12;;
68300;SDS011;55146;47.468;18.806;2023-05-10T09:28:11;5.03;;;3.23;;
68300;SDS011;55146;47.468;18.806;2023-05-10T09:30:37;9.83;;;3.47;;
68300;SDS011;55146;47.468;18.806;2023-05-10T09:33:02;7.73;;;3.97;;
68300;SDS011;55146;47.468;18.806;2023-05-10T09:35:29;7.60;;;3.40;;
68300;SDS011;55146;47.468;18.806;2023-05-10T09:37:57;4.80;;;3.23;;
68300;SDS011;55146;47.468;18.806;2023-05-10T09:40:24;5.93;;;3.67;;
68300;SDS011;55146;47.468;18.806;2023-05-10T09:43:01;6.05;;;3.60;;
68300;SDS011;55146;47.468;18.806;2023-05-10T09:45:31;7.90;;;3.20;;
68300;SDS011;55146;47.468;18.806;2023-05-10T09:47:58;8.45;;;3.17;;
68300;SDS011;55146;47.468;18.806;2023-05-10T09:50:24;5.47;;;3.63;;
68300;SDS011;55146;47.468;18.806;2023-05-10T09:52:59;6.40;;;3.72;;
68300;SDS011;55146;47.468;18.806;2023-05-10T09:58:05;5.75;;;3.65;;
68300;SDS011;55146;47.468;18.806;2023-05-10T10:00:35;6.20;;;3.53;;
68300;SDS011;55146;47.468;18.806;2023-05-10T10:03:02;6.70;;;4.40;;
68300;SDS011;55146;47.468;18.806;2023-05-10T10:05:31;6.35;;;3.87;;
68300;SDS011;55146;47.468;18.806;2023-05-10T10:07:58;5.80;;;3.55;;
68300;SDS011;55146;47.468;18.806;2023-05-10T10:10:25;7.20;;;4.18;;
68300;SDS011;55146;47.468;18.806;2023-05-10T10:12:52;5.10;;;3.87;;
68300;SDS011;55146;47.468;18.806;2023-05-10T10:15:17;7.32;;;3.37;;
68300;SDS011;55146;47.468;18.806;2023-05-10T10:17:43;8.43;;;3.72;;
68300;SDS011;55146;47.468;18.806;2023-05-10T10:20:10;5.75;;;3.65;;
68300;SDS011;55146;47.468;18.806;2023-05-10T10:22:36;8.23;;;4.00;;
68300;SDS011;55146;47.468;18.806;2023-05-10T10:25:02;5.62;;;4.00;;
68300;SDS011;55146;47.468;18.806;2023-05-10T10:27:43;6.00;;;3.67;;
68300;SDS011;55146;47.468;18.806;2023-05-10T10:35:32;5.57;;;3.78;;
68300;SDS011;55146;47.468;18.806;2023-05-10T10:37:58;7.37;;;4.03;;
68300;SDS011;55146;47.468;18.806;2023-05-10T10:42:57;7.67;;;4.57;;
68300;SDS011;55146;47.468;18.806;2023-05-10T10:45:23;6.82;;;3.37;;
68300;SDS011;55146;47.468;18.806;2023-05-10T10:50:47;35.85;;;11.93;;
68300;SDS011;55146;47.468;18.806;2023-05-10T10:53:12;12.30;;;6.63;;
68300;SDS011;55146;47.468;18.806;2023-05-10T10:55:45;5.93;;;4.07;;
68300;SDS011;55146;47.468;18.806;2023-05-10T10:58:28;7.68;;;3.80;;
68300;SDS011;55146;47.468;18.806;2023-05-10T11:01:15;6.07;;;3.47;;
68300;SDS011;55146;47.468;18.806;2023-05-10T11:06:31;7.30;;;3.47;;
68300;SDS011;55146;47.468;18.806;2023-05-10T11:08:58;6.07;;;3.25;;
68300;SDS011;55146;47.468;18.806;2023-05-10T11:11:24;5.30;;;3.33;;
68300;SDS011;55146;47.468;18.806;2023-05-10T11:13:50;5.27;;;2.77;;
68300;SDS011;55146;47.468;18.806;2023-05-10T11:16:17;7.28;;;3.10;;
68300;SDS011;55146;47.468;18.806;2023-05-10T11:21:26;6.50;;;2.90;;
68300;SDS011;55146;47.468;18.806;2023-05-10T11:23:52;5.73;;;2.87;;
68300;SDS011;55146;47.468;18.806;2023-05-10T11:26:21;5.10;;;2.75;;
68300;SDS011;55146;47.468;18.806;2023-05-10T11:28:50;5.37;;;3.08;;
68300;SDS011;55146;47.468;18.806;2023-05-10T11:31:18;6.63;;;2.73;;
68300;SDS011;55146;47.468;18.806;2023-05-10T11:33:45;4.87;;;2.95;;
68300;SDS011;55146;47.468;18.806;2023-05-10T11:36:12;4.82;;;2.78;;
68300;SDS011;55146;47.468;18.806;2023-05-10T11:38:39;4.40;;;2.80;;
68300;SDS011;55146;47.468;18.806;2023-05-10T11:41:04;4.67;;;3.00;;
68300;SDS011;55146;47.468;18.806;2023-05-10T11:43:30;6.07;;;2.50;;
68300;SDS011;55146;47.468;18.806;2023-05-10T11:45:55;4.83;;;3.37;;
68300;SDS011;55146;47.468;18.806;2023-05-10T11:48:21;5.00;;;3.10;;
68300;SDS011;55146;47.468;18.806;2023-05-10T11:50:49;5.22;;;3.50;;
68300;SDS011;55146;47.468;18.806;2023-05-10T11:53:15;8.00;;;2.90;;
68300;SDS011;55146;47.468;18.806;2023-05-10T11:55:40;7.00;;;2.90;;
68300;SDS011;55146;47.468;18.806;2023-05-10T11:58:05;7.40;;;3.03;;
68300;SDS011;55146;47.468;18.806;2023-05-10T12:00:31;6.43;;;3.17;;
68300;SDS011;55146;47.468;18.806;2023-05-10T12:02:57;4.72;;;3.05;;
68300;SDS011;55146;47.468;18.806;2023-05-10T12:05:24;6.30;;;3.15;;
68300;SDS011;55146;47.468;18.806;2023-05-10T12:07:49;4.83;;;3.20;;
68300;SDS011;55146;47.468;18.806;2023-05-10T12:10:15;7.70;;;2.77;;
68300;SDS011;55146;47.468;18.806;2023-05-10T12:12:45;6.32;;;2.50;;
68300;SDS011;55146;47.468;18.806;2023-05-10T12:17:45;6.72;;;2.70;;
68300;SDS011;55146;47.468;18.806;2023-05-10T12:20:18;5.25;;;3.05;;
68300;SDS011;55146;47.468;18.806;2023-05-10T12:22:54;7.63;;;2.50;;
68300;SDS011;55146;47.468;18.806;2023-05-10T12:25:22;5.12;;;3.00;;
68300;SDS011;55146;47.468;18.806;2023-05-10T12:27:53;5.03;;;2.62;;
68300;SDS011;55146;47.468;18.806;2023-05-10T12:30:23;4.43;;;2.70;;
68300;SDS011;55146;47.468;18.806;2023-05-10T12:32:50;6.60;;;3.50;;
68300;SDS011;55146;47.468;18.806;2023-05-10T12:35:16;4.67;;;2.67;;
68300;SDS011;55146;47.468;18.806;2023-05-10T12:37:45;7.22;;;4.03;;
68300;SDS011;55146;47.468;18.806;2023-05-10T12:40:13;4.60;;;2.97;;
68300;SDS011;55146;47.468;18.806;2023-05-10T12:42:39;5.87;;;2.60;;
68300;SDS011;55146;47.468;18.806;2023-05-10T12:45:05;4.87;;;2.95;;
68300;SDS011;55146;47.468;18.806;2023-05-10T12:47:31;4.73;;;1.87;;
68300;SDS011;55146;47.468;18.806;2023-05-10T12:49:58;4.47;;;2.70;;
68300;SDS011;55146;47.468;18.806;2023-05-10T12:52:24;5.00;;;2.85;;
68300;SDS011;55146;47.468;18.806;2023-05-10T12:54:51;4.37;;;2.90;;
68300;SDS011;55146;47.468;18.806;2023-05-10T12:57:16;6.32;;;2.75;;
68300;SDS011;55146;47.468;18.806;2023-05-10T12:59:43;5.20;;;3.20;;
68300;SDS011;55146;47.468;18.806;2023-05-10T13:02:09;4.60;;;2.90;;
68300;SDS011;55146;47.468;18.806;2023-05-10T13:04:35;4.57;;;2.50;;
68300;SDS011;55146;47.468;18.806;2023-05-10T13:07:04;4.78;;;3.00;;
68300;SDS011;55146;47.468;18.806;2023-05-10T13:09:30;5.53;;;2.95;;
68300;SDS011;55146;47.468;18.806;2023-05-10T13:11:55;5.10;;;2.80;;
68300;SDS011;55146;47.468;18.806;2023-05-10T13:14:20;6.30;;;2.60;;
68300;SDS011;55146;47.468;18.806;2023-05-10T13:16:46;7.40;;;3.72;;
68300;SDS011;55146;47.468;18.806;2023-05-10T13:19:12;7.87;;;3.40;;
68300;SDS011;55146;47.468;18.806;2023-05-10T13:21:41;7.20;;;4.00;;
68300;SDS011;55146;47.468;18.806;2023-05-10T13:24:07;4.87;;;2.70;;
68300;SDS011;55146;47.468;18.806;2023-05-10T13:26:33;7.57;;;3.08;;
68300;SDS011;55146;47.468;18.806;2023-05-10T13:28:58;6.53;;;3.20;;
68300;SDS011;55146;47.468;18.806;2023-05-10T13:31:24;9.07;;;3.50;;
68300;SDS011;55146;47.468;18.806;2023-05-10T13:33:49;7.20;;;3.53;;
68300;SDS011;55146;47.468;18.806;2023-05-10T13:36:15;5.55;;;2.65;;
68300;SDS011;55146;47.468;18.806;2023-05-10T13:38:40;4.20;;;3.10;;
68300;SDS011;55146;47.468;18.806;2023-05-10T13:41:06;5.03;;;2.60;;
68300;SDS011;55146;47.468;18.806;2023-05-10T13:43:31;7.00;;;2.93;;
68300;SDS011;55146;47.468;18.806;2023-05-10T13:45:57;5.00;;;2.27;;
68300;SDS011;55146;47.468;18.806;2023-05-10T13:48:22;5.82;;;2.45;;
68300;SDS011;55146;47.468;18.806;2023-05-10T13:50:47;4.53;;;2.37;;
68300;SDS011;55146;47.468;18.806;2023-05-10T13:53:13;4.73;;;2.70;;
68300;SDS011;55146;47.468;18.806;2023-05-10T13:55:39;5.87;;;2.10;;
68300;SDS011;55146;47.468;18.806;2023-05-10T13:58:04;3.60;;;2.17;;
68300;SDS011;55146;47.468;18.806;2023-05-10T14:00:30;4.43;;;2.80;;
68300;SDS011;55146;47.468;18.806;2023-05-10T14:02:55;6.43;;;2.37;;
68300;SDS011;55146;47.468;18.806;2023-05-10T14:05:21;5.55;;;1.87;;
68300;SDS011;55146;47.468;18.806;2023-05-10T14:07:46;4.67;;;2.00;;
68300;SDS011;55146;47.468;18.806;2023-05-10T14:10:12;4.03;;;2.40;;
68300;SDS011;55146;47.468;18.806;2023-05-10T14:12:37;5.30;;;2.30;;
68300;SDS011;55146;47.468;18.806;2023-05-10T14:15:03;4.87;;;2.40;;
68300;SDS011;55146;47.468;18.806;2023-05-10T14:17:30;4.53;;;2.47;;
68300;SDS011;55146;47.468;18.806;2023-05-10T14:19:56;7.10;;;2.50;;
68300;SDS011;55146;47.468;18.806;2023-05-10T14:22:21;3.80;;;2.03;;
68300;SDS011;55146;47.468;18.806;2023-05-10T14:24:47;5.75;;;2.75;;
68300;SDS011;55146;47.468;18.806;2023-05-10T14:27:13;5.13;;;2.87;;
68300;SDS011;55146;47.468;18.806;2023-05-10T14:29:39;10.50;;;3.30;;
68300;SDS011;55146;47.468;18.806;2023-05-10T14:32:04;5.70;;;3.00;;
68300;SDS011;55146;47.468;18.806;2023-05-10T14:34:30;4.20;;;2.50;;
68300;SDS011;55146;47.468;18.806;2023-05-10T14:36:55;4.77;;;2.27;;
68300;SDS011;55146;47.468;18.806;2023-05-10T14:39:20;5.87;;;2.97;;
68300;SDS011;55146;47.468;18.806;2023-05-10T14:41:46;5.07;;;2.83;;
68300;SDS011;55146;47.468;18.806;2023-05-10T14:44:13;8.23;;;2.62;;
68300;SDS011;55146;47.468;18.806;2023-05-10T14:46:38;6.28;;;2.22;;
68300;SDS011;55146;47.468;18.806;2023-05-10T14:49:04;4.70;;;2.50;;
68300;SDS011;55146;47.468;18.806;2023-05-10T14:51:29;5.70;;;2.77;;
68300;SDS011;55146;47.468;18.806;2023-05-10T14:53:55;4.62;;;2.30;;
68300;SDS011;55146;47.468;18.806;2023-05-10T14:56:21;4.10;;;2.17;;
68300;SDS011;55146;47.468;18.806;2023-05-10T14:58:47;4.28;;;2.33;;
68300;SDS011;55146;47.468;18.806;2023-05-10T15:01:15;5.25;;;3.00;;
68300;SDS011;55146;47.468;18.806;2023-05-10T15:03:40;4.23;;;2.40;;
68300;SDS011;55146;47.468;18.806;2023-05-10T15:06:05;4.63;;;2.90;;
68300;SDS011;55146;47.468;18.806;2023-05-10T15:08:31;4.10;;;2.47;;
68300;SDS011;55146;47.468;18.806;2023-05-10T15:10:56;4.27;;;2.07;;
68300;SDS011;55146;47.468;18.806;2023-05-10T15:13:22;4.37;;;2.10;;